Time;durP1;ratioP1;P1;durP2;ratioP2;P2;SDS_P1;SDS_P2;PMS_P1;PMS_P2;Temp;Humidity;BMP_temperature;BMP_pressure;BME280_temperature;BME280_humidity;BME280_pressure;Samples;Min_cycle;Max_cycle;Signal;HPM_P1;HPM_P2
2023/03/16 05:22:34;;;;;;;2.22;1.65;;;;;;;-0.65;100.00;100518.69;5088962;28;20228;-68
2023/03/16 05:25:17;;;;;;;8.13;4.35;;;;;;;-0.61;100.00;100519.31;5087634;28;20485;-68
2023/03/16 05:27:53;;;;;;;3.10;2.38;;;;;;;-0.61;100.00;100514.94;5087763;28;20496;-68
2023/03/16 05:30:39;;;;;;;5.30;2.80;;;;;;;-0.65;100.00;100510.84;5091865;28;20342;-68
2023/03/16 05:33:07;;;;;;;3.03;2.15;;;;;;;-0.63;100.00;100510.75;5087312;28;20033;-68
2023/03/16 05:35:33;;;;;;;6.32;3.35;;;;;;;-0.65;100.00;100505.59;5087687;28;20044;-68
2023/03/16 05:38:03;;;;;;;4.65;2.85;;;;;;;-0.69;100.00;100508.50;5087629;28;20479;-68
2023/03/16 05:40:31;;;;;;;6.05;3.05;;;;;;;-0.60;100.00;100507.91;5087427;28;20093;-68
2023/03/16 05:43:07;;;;;;;2.67;2.47;;;;;;;-0.66;100.00;100505.69;5087349;28;20078;-68
2023/03/16 05:45:37;;;;;;;4.32;2.53;;;;;;;-0.66;100.00;100503.06;5087196;28;20131;-67
2023/03/16 05:48:10;;;;;;;4.28;2.65;;;;;;;-0.66;100.00;100505.69;5087690;28;20067;-69
2023/03/16 05:50:42;;;;;;;9.82;4.78;;;;;;;-0.60;100.00;100500.06;5087554;28;20627;-69
2023/03/16 05:53:08;;;;;;;5.43;3.33;;;;;;;-0.62;100.00;100502.78;5086418;28;20123;-69
2023/03/16 05:55:35;;;;;;;6.28;4.38;;;;;;;-0.54;100.00;100512.78;5085977;28;20032;-69
2023/03/16 05:58:04;;;;;;;6.80;4.03;;;;;;;-0.56;100.00;100507.63;5085464;28;20170;-68
2023/03/16 06:00:30;;;;;;;4.75;2.70;;;;;;;-0.60;100.00;100510.53;5086376;28;20028;-68
2023/03/16 06:03:09;;;;;;;7.38;3.78;;;;;;;-0.56;100.00;100505.03;5085308;28;20070;-69
2023/03/16 06:05:36;;;;;;;2.88;2.55;;;;;;;-0.56;100.00;100498.94;5086721;28;20036;-69
2023/03/16 06:08:03;;;;;;;6.13;3.33;;;;;;;-0.58;100.00;100506.06;5086718;28;20483;-68
2023/03/16 06:10:29;;;;;;;5.75;3.03;;;;;;;-0.50;100.00;100511.66;5086366;28;20036;-68
2023/03/16 06:12:55;;;;;;;4.78;2.72;;;;;;;-0.50;100.00;100509.03;5087651;28;20568;-69
2023/03/16 06:15:23;;;;;;;6.72;3.50;;;;;;;-0.45;100.00;100512.22;5086532;28;20032;-70
2023/03/16 06:17:50;;;;;;;4.40;3.08;;;;;;;-0.40;100.00;100512.72;5086405;28;20493;-68
2023/03/16 06:20:16;;;;;;;6.30;3.20;;;;;;;-0.35;100.00;100513.28;5087983;28;20036;-68
2023/03/16 06:22:43;;;;;;;5.27;3.53;;;;;;;-0.22;100.00;100512.53;5106555;28;20059;-68
2023/03/16 06:25:11;;;;;;;6.00;3.33;;;;;;;-0.14;100.00;100518.94;5106790;28;20055;-68
2023/03/16 06:27:37;;;;;;;4.43;2.95;;;;;;;-0.01;100.00;100516.38;5106606;28;20034;-69
2023/03/16 06:30:11;;;;;;;5.07;3.33;;;;;;;0.16;100.00;100513.50;5106565;28;20450;-69
2023/03/16 06:32:37;;;;;;;5.70;4.05;;;;;;;0.15;100.00;100509.22;5099947;28;20134;-68
2023/03/16 06:35:04;;;;;;;3.58;2.95;;;;;;;0.36;100.00;100512.19;5092953;28;20536;-69
2023/03/16 06:37:31;;;;;;;4.53;3.30;;;;;;;0.50;100.00;100519.13;5092941;28;20174;-70
2023/03/16 06:40:03;;;;;;;6.97;3.28;;;;;;;0.63;100.00;100513.91;5092923;28;20421;-70
2023/03/16 06:42:28;;;;;;;9.80;4.65;;;;;;;0.69;100.00;100505.63;5092544;28;20598;-69
2023/03/16 06:44:55;;;;;;;5.60;3.40;;;;;;;0.90;100.00;100506.78;5092660;28;20043;-68
2023/03/16 06:47:21;;;;;;;3.88;2.97;;;;;;;1.14;100.00;100512.13;5092662;28;20406;-70
2023/03/16 06:49:46;;;;;;;6.55;3.15;;;;;;;1.17;100.00;100506.66;5092686;28;20155;-50
2023/03/16 06:52:17;;;;;;;6.40;3.10;;;;;;;1.50;100.00;100505.25;5092486;28;20028;-52
2023/03/16 06:54:42;;;;;;;12.00;3.28;;;;;;;1.59;100.00;100509.84;5092513;28;20043;-63
2023/03/16 06:57:08;;;;;;;9.55;3.17;;;;;;;1.49;100.00;100509.66;5092594;28;20544;-63
2023/03/16 06:59:34;;;;;;;3.55;2.67;;;;;;;1.50;100.00;100511.34;5093921;28;20051;-63
2023/03/16 07:02:00;;;;;;;3.00;2.63;;;;;;;1.66;100.00;100503.22;5092437;28;20035;-63
2023/03/16 07:04:26;;;;;;;3.17;2.17;;;;;;;1.95;100.00;100503.72;5092369;28;20039;-61
2023/03/16 07:06:52;;;;;;;5.20;3.05;;;;;;;2.14;100.00;100511.94;5092349;28;20028;-63
2023/03/16 07:09:17;;;;;;;5.70;2.78;;;;;;;2.13;100.00;100512.06;5092370;28;20446;-63
2023/03/16 07:11:43;;;;;;;4.95;2.85;;;;;;;2.41;100.00;100518.72;5092262;28;20089;-62
2023/03/16 07:14:09;;;;;;;4.93;3.20;;;;;;;2.39;100.00;100516.22;5091894;28;20907;-63
2023/03/16 07:16:35;;;;;;;4.20;3.10;;;;;;;2.59;100.00;100517.34;5092176;28;20468;-63
2023/03/16 07:19:03;;;;;;;;;;;;;;;2.49;100.00;100516.38;5092776;28;20028;-62
2023/03/16 07:21:37;;;;;;;3.65;2.58;;;;;;;2.72;100.00;100522.53;5092046;28;20011;-63
2023/03/16 07:24:04;;;;;;;8.07;4.15;;;;;;;2.94;100.00;100521.75;5091878;28;20068;-63
2023/03/16 07:26:34;;;;;;;4.43;3.35;;;;;;;3.08;100.00;100512.78;5075793;28;20070;-63
2023/03/16 07:29:00;;;;;;;5.38;3.90;;;;;;;3.12;100.00;100522.09;5092214;28;20463;-62
2023/03/16 07:31:27;;;;;;;7.60;3.87;;;;;;;3.33;100.00;100523.09;5092242;28;20046;-62
2023/03/16 07:33:56;;;;;;;;;;;;;;;3.15;100.00;100525.34;5092304;28;20575;-61
2023/03/16 07:36:30;;;;;;;9.10;4.20;;;;;;;3.08;100.00;100515.44;5091686;28;19916;-63
2023/03/16 07:38:59;;;;;;;9.93;4.45;;;;;;;3.25;100.00;100521.03;5091751;28;20053;-65
2023/03/16 07:41:24;;;;;;;6.53;3.70;;;;;;;3.42;100.00;100525.00;5091718;28;20136;-63
2023/03/16 07:43:50;;;;;;;12.55;5.10;;;;;;;3.75;100.00;100528.56;5091888;28;20039;-65
2023/03/16 07:46:16;;;;;;;10.40;4.28;;;;;;;3.58;100.00;100521.97;5091585;28;20123;-64
2023/03/16 07:48:43;;;;;;;7.55;4.32;;;;;;;3.74;100.00;100529.50;5091636;28;20080;-65
2023/03/16 07:51:12;;;;;;;10.32;4.47;;;;;;;4.04;100.00;100531.47;5091463;28;20081;-65
2023/03/16 07:53:39;;;;;;;6.55;4.32;;;;;;;4.28;99.77;100533.91;5091121;28;20439;-64
2023/03/16 07:56:25;;;;;;;8.80;4.30;;;;;;;4.31;95.14;100512.56;5091032;28;20142;-65
2023/03/16 07:58:54;;;;;;;5.55;3.22;;;;;;;4.44;95.52;100520.31;5091097;28;20067;-64
2023/03/16 08:01:21;;;;;;;4.53;3.00;;;;;;;4.68;93.40;100512.97;5091346;28;20039;-65
2023/03/16 08:03:48;;;;;;;4.32;3.15;;;;;;;4.88;92.18;100519.22;5090928;28;20035;-65
2023/03/16 08:06:13;;;;;;;5.93;3.35;;;;;;;4.85;94.00;100508.91;5091156;28;20033;-65
2023/03/16 08:08:41;;;;;;;4.60;3.83;;;;;;;5.15;90.57;100511.59;5091228;28;20032;-65
2023/03/16 08:11:12;;;;;;;4.80;3.58;;;;;;;5.23;91.03;100481.88;5075054;28;20109;-65
2023/03/16 08:13:46;;;;;;;5.07;3.10;;;;;;;5.55;90.94;100480.88;5090761;28;20100;-65
2023/03/16 08:16:12;;;;;;;7.82;3.38;;;;;;;5.50;88.93;100483.91;5090987;28;20031;-66
2023/03/16 08:18:41;;;;;;;7.68;3.47;;;;;;;5.41;86.88;100489.97;5091022;28;20082;-66
2023/03/16 08:21:07;;;;;;;3.55;2.80;;;;;;;5.85;89.85;100487.88;5090903;28;20062;-64
2023/03/16 08:23:32;;;;;;;3.85;2.88;;;;;;;6.07;89.14;100492.97;5090660;28;20036;-63
2023/03/16 08:25:58;;;;;;;8.50;3.08;;;;;;;6.22;84.23;100490.72;5092325;28;20044;-66
2023/03/16 08:28:25;;;;;;;5.82;2.70;;;;;;;6.17;84.77;100487.66;5090630;28;20112;-63
2023/03/16 08:30:54;;;;;;;4.40;2.38;;;;;;;6.44;83.06;100492.25;5090674;28;20047;-63
2023/03/16 08:33:29;;;;;;;5.05;2.92;;;;;;;6.64;80.01;100488.59;5090463;28;20037;-63
2023/03/16 08:35:54;;;;;;;4.47;2.75;;;;;;;6.92;80.30;100484.22;5073737;28;20043;-63
2023/03/16 08:38:20;;;;;;;7.28;2.85;;;;;;;7.12;77.68;100481.50;5090651;28;20063;-63
2023/03/16 08:40:49;;;;;;;7.45;2.50;;;;;;;7.55;79.31;100480.88;5090596;28;20089;-63
2023/03/16 08:43:18;;;;;;;6.10;2.50;;;;;;;7.54;78.55;100485.34;5090331;28;20044;-65
2023/03/16 08:45:45;;;;;;;4.55;2.40;;;;;;;7.54;74.78;100492.47;5090647;28;20035;-65
2023/03/16 08:48:11;;;;;;;2.85;2.50;;;;;;;7.73;80.03;100487.06;5090505;28;20512;-64
2023/03/16 08:50:42;;;;;;;4.25;2.70;;;;;;;7.83;81.14;100497.63;5090370;28;20123;-65
2023/03/16 08:53:09;;;;;;;2.70;2.15;;;;;;;8.00;77.96;100503.91;5091569;28;20036;-64
2023/03/16 08:55:35;;;;;;;2.88;2.20;;;;;;;8.04;70.94;100492.03;5091460;28;20477;-64
2023/03/16 08:58:02;;;;;;;4.10;2.50;;;;;;;8.26;74.45;100478.28;5091588;28;20040;-65
2023/03/16 09:00:28;;;;;;;6.60;2.83;;;;;;;8.45;72.52;100473.84;5090384;28;20096;-65
2023/03/16 09:02:54;;;;;;;5.07;2.78;;;;;;;8.81;70.33;100467.47;5091291;28;20040;-64
2023/03/16 09:05:20;;;;;;;4.57;2.45;;;;;;;8.79;71.47;100466.78;5091595;28;20036;-65
2023/03/16 09:07:46;;;;;;;5.00;2.58;;;;;;;9.22;70.22;100462.38;5091657;28;20035;-65
2023/03/16 09:10:14;;;;;;;3.85;2.10;;;;;;;9.18;68.44;100456.53;5091598;28;20024;-65
2023/03/16 09:12:43;;;;;;;3.47;2.20;;;;;;;9.18;71.38;100456.53;5091222;28;20032;-65
2023/03/16 09:15:11;;;;;;;4.22;2.35;;;;;;;9.43;65.91;100446.84;5091697;28;20412;-64
2023/03/16 09:17:37;;;;;;;3.15;2.17;;;;;;;9.69;64.92;100451.25;5091469;28;20036;-64
2023/03/16 09:20:04;;;;;;;3.45;2.13;;;;;;;9.50;70.65;100445.19;5091548;28;20195;-65
2023/03/16 09:22:30;;;;;;;2.85;2.28;;;;;;;9.57;69.06;100450.69;5091225;28;20036;-66
2023/03/16 09:24:55;;;;;;;3.20;2.15;;;;;;;9.69;67.84;100459.22;5090093;28;20036;-65
2023/03/16 09:27:21;;;;;;;2.95;2.15;;;;;;;9.94;67.17;100447.63;5091157;28;20071;-65
2023/03/16 09:29:47;;;;;;;4.82;2.22;;;;;;;10.11;64.30;100453.00;5091469;28;20111;-65
2023/03/16 09:32:13;;;;;;;3.05;2.20;;;;;;;10.15;67.32;100455.13;5091119;28;20044;-63
2023/03/16 09:34:38;;;;;;;2.60;2.08;;;;;;;10.44;64.33;100456.53;5091175;28;20401;-65
2023/03/16 09:37:04;;;;;;;4.97;2.30;;;;;;;10.59;62.30;100453.00;5091149;28;20047;-65
2023/03/16 09:39:30;;;;;;;3.53;1.75;;;;;;;10.83;62.76;100448.66;5091245;28;20036;-65
2023/03/16 09:42:08;;;;;;;2.72;1.90;;;;;;;10.88;60.38;100456.94;5091016;28;20042;-64
2023/03/16 09:44:58;;;;;;;5.32;2.10;;;;;;;11.03;57.77;100449.09;5089876;28;20059;-64
2023/03/16 09:47:30;;;;;;;1.98;1.40;;;;;;;11.50;59.57;100441.06;5091054;28;20040;-64
2023/03/16 09:49:58;;;;;;;3.30;2.13;;;;;;;11.86;57.44;100436.03;5091193;28;20131;-63
2023/03/16 09:52:48;;;;;;;2.83;1.80;;;;;;;12.38;55.38;100434.47;5090696;28;20185;-65
2023/03/16 09:55:26;;;;;;;1.75;1.30;;;;;;;12.65;51.85;100443.75;5091062;28;20115;-63
2023/03/16 09:57:52;;;;;;;3.15;1.70;;;;;;;12.12;56.15;100437.53;5091060;28;20089;-63
2023/03/16 10:00:29;;;;;;;2.58;1.40;;;;;;;12.54;51.42;100428.19;5091045;28;20169;-63
2023/03/16 10:03:21;;;;;;;1.65;1.33;;;;;;;12.26;54.84;100420.75;5090708;28;20552;-63
2023/03/16 10:05:53;;;;;;;2.38;1.60;;;;;;;12.74;56.41;100407.94;5090936;28;20036;-64
2023/03/16 10:08:25;;;;;;;2.25;1.70;;;;;;;13.30;50.41;100409.16;5093133;28;20063;-64
2023/03/16 10:11:12;;;;;;;5.55;1.80;;;;;;;12.97;51.22;100407.81;5094664;28;20034;-64
2023/03/16 10:13:46;;;;;;;1.73;1.20;;;;;;;14.20;47.93;100405.13;5094394;28;20078;-64
2023/03/16 10:16:29;;;;;;;2.15;1.23;;;;;;;13.89;49.47;100391.22;5094644;28;20042;-64
2023/03/16 10:19:11;;;;;;;3.30;1.50;;;;;;;14.65;46.49;100389.63;5094712;28;20051;-64
2023/03/16 10:21:39;;;;;;;1.48;1.20;;;;;;;14.76;46.55;100377.53;5093080;28;20477;-65
2023/03/16 10:24:20;;;;;;;1.30;1.20;;;;;;;15.31;48.18;100378.41;5094221;28;20040;-65
2023/03/16 10:26:53;;;;;;;1.75;1.50;;;;;;;16.04;42.46;100381.28;5094317;28;20404;-63
2023/03/16 10:29:19;;;;;;;2.03;1.02;;;;;;;16.01;44.45;100382.53;5094429;28;20114;-64
2023/03/16 10:31:44;;;;;;;1.83;1.30;;;;;;;15.34;44.35;100392.28;5094294;28;20130;-63
2023/03/16 10:34:10;;;;;;;1.48;1.10;;;;;;;16.27;44.36;100392.47;5094137;28;20043;-65
2023/03/16 10:36:40;;;;;;;1.42;1.10;;;;;;;16.86;41.49;100382.72;5093004;28;20040;-66
2023/03/16 10:39:07;;;;;;;2.33;1.40;;;;;;;17.29;40.83;100385.69;5094262;28;20040;-65
2023/03/16 10:41:42;;;;;;;2.05;1.25;;;;;;;17.93;38.24;100383.88;5092866;28;20478;-65
2023/03/16 10:44:28;;;;;;;1.10;0.80;;;;;;;17.34;38.94;100381.31;5093788;28;20053;-65
2023/03/16 10:47:04;;;;;;;1.20;1.10;;;;;;;17.22;40.09;100380.31;5094390;28;20430;-64
2023/03/16 10:49:38;;;;;;;1.58;1.17;;;;;;;17.44;39.51;100377.31;5094154;28;20060;-65
2023/03/16 10:52:18;;;;;;;1.10;1.00;;;;;;;15.95;41.84;100381.50;5093838;28;20036;-65
2023/03/16 10:54:50;;;;;;;0.95;0.80;;;;;;;17.23;38.83;100367.69;5093863;28;20039;-65
2023/03/16 10:57:19;;;;;;;1.08;1.00;;;;;;;18.77;37.59;100369.91;5093932;28;20047;-65
2023/03/16 10:59:49;;;;;;;1.13;0.70;;;;;;;19.33;37.58;100366.13;5093882;28;20036;-64
2023/03/16 11:02:22;;;;;;;1.20;0.98;;;;;;;19.70;38.08;100368.78;5093681;28;20040;-65
2023/03/16 11:04:48;;;;;;;1.02;0.80;;;;;;;20.02;36.49;100369.34;5093661;28;20122;-65
2023/03/16 11:07:16;;;;;;;0.98;0.77;;;;;;;19.82;37.26;100348.00;5093849;28;20678;-65
2023/03/16 11:09:43;;;;;;;0.80;0.60;;;;;;;19.07;35.53;100337.59;5093710;28;20028;-65
2023/03/16 11:12:30;;;;;;;0.88;0.45;;;;;;;19.33;36.72;100346.41;5093425;28;20028;-63
2023/03/16 11:15:04;;;;;;;0.77;0.60;;;;;;;19.42;35.32;100339.63;5093671;28;20043;-65
2023/03/16 11:17:40;;;;;;;0.68;0.50;;;;;;;19.00;33.47;100338.72;5093565;28;20126;-65
2023/03/16 11:20:16;;;;;;;0.45;0.43;;;;;;;18.72;34.73;100341.97;5093314;28;20040;-65
2023/03/16 11:22:47;;;;;;;0.60;0.60;;;;;;;18.70;35.19;100329.50;5093187;28;20032;-64
2023/03/16 11:25:27;;;;;;;1.45;0.70;;;;;;;17.98;36.40;100336.38;5093325;28;20039;-65
2023/03/16 11:28:10;;;;;;;0.57;0.45;;;;;;;17.20;39.80;100327.72;5093422;28;20032;-66
2023/03/16 11:30:48;;;;;;;0.80;0.68;;;;;;;16.76;38.46;100335.56;5093772;28;20042;-62
2023/03/16 11:33:14;;;;;;;0.40;0.40;;;;;;;16.02;42.76;100325.91;5092952;28;20454;-64
2023/03/16 11:35:57;;;;;;;1.25;0.77;;;;;;;15.85;39.80;100324.69;5093251;28;20153;-65
2023/03/16 11:38:55;;;;;;;0.93;0.50;;;;;;;16.08;38.49;100318.88;5093269;28;20090;-62
2023/03/16 11:41:27;;;;;;;0.80;0.55;;;;;;;15.90;37.77;100318.66;5092775;28;20386;-60
2023/03/16 11:44:04;;;;;;;0.40;0.30;;;;;;;15.80;39.39;100319.09;5092821;28;20446;-63
2023/03/16 11:46:47;;;;;;;0.22;0.22;;;;;;;15.88;41.23;100304.63;5093083;28;20040;-60
2023/03/16 11:49:44;;;;;;;0.63;0.57;;;;;;;16.32;38.69;100304.00;5092925;28;20035;-61
2023/03/16 11:52:40;;;;;;;0.50;0.40;;;;;;;15.20;39.67;100304.72;5092838;28;20040;-63
2023/03/16 11:55:18;;;;;;;1.10;0.43;;;;;;;15.63;37.92;100299.03;5092730;28;20500;-61
2023/03/16 11:58:36;;;;;;;1.13;0.50;;;;;;;15.09;38.77;100305.28;5092924;28;20028;-62
2023/03/16 12:01:07;;;;;;;0.20;0.20;;;;;;;15.04;39.39;100294.31;5067605;28;20048;-61
2023/03/16 12:03:52;;;;;;;0.80;0.50;;;;;;;15.05;42.09;100293.28;5092599;28;20028;-61
2023/03/16 12:06:24;;;;;;;0.68;0.50;;;;;;;15.34;43.48;100286.78;5091320;28;20036;-61
2023/03/16 12:08:56;;;;;;;1.33;0.45;;;;;;;15.98;40.79;100287.06;5092542;28;20039;-61
2023/03/16 12:11:47;;;;;;;1.27;0.52;;;;;;;16.45;36.78;100287.84;5092507;28;20062;-60
2023/03/16 12:14:26;;;;;;;0.30;0.30;;;;;;;16.74;38.00;100283.84;5092209;28;20051;-61
2023/03/16 12:17:14;;;;;;;0.60;0.60;;;;;;;17.09;39.17;100287.00;5092374;28;20039;-61
2023/03/16 12:20:04;;;;;;;0.73;0.30;;;;;;;18.62;33.89;100281.22;5092482;28;20400;-61
2023/03/16 12:22:58;;;;;;;1.10;0.40;;;;;;;18.37;35.57;100272.38;5091920;28;20036;-63
2023/03/16 12:25:31;;;;;;;1.95;0.60;;;;;;;18.14;34.92;100270.34;5092355;28;20028;-60
2023/03/16 12:28:01;;;;;;;1.02;0.40;;;;;;;19.09;32.30;100265.28;5092324;28;20040;-61
2023/03/16 12:31:02;;;;;;;0.40;0.40;;;;;;;19.83;30.50;100268.59;5091941;28;20123;-62
2023/03/16 12:33:53;;;;;;;1.08;0.50;;;;;;;20.20;29.46;100250.25;5091329;28;20130;-64
2023/03/16 12:36:35;;;;;;;0.50;0.50;;;;;;;20.11;29.79;100259.78;5088962;28;20048;-65
2023/03/16 12:39:06;;;;;;;0.50;0.30;;;;;;;19.92;29.33;100255.56;5088039;28;20020;-64
2023/03/16 12:41:53;;;;;;;0.30;0.30;;;;;;;19.51;29.79;100241.84;5081713;28;20066;-63
2023/03/16 12:44:31;;;;;;;0.38;0.38;;;;;;;19.14;30.71;100248.41;5082327;28;20123;-61
2023/03/16 12:47:22;;;;;;;0.63;0.40;;;;;;;19.25;30.56;100239.53;5082421;28;20543;-61
2023/03/16 12:49:50;;;;;;;0.20;0.20;;;;;;;19.95;30.44;100226.19;5081175;28;20090;-62
2023/03/16 12:52:15;;;;;;;0.50;0.40;;;;;;;20.84;29.38;100232.16;5077789;28;20040;-64
2023/03/16 12:54:52;;;;;;;1.15;0.47;;;;;;;21.17;28.02;100225.19;5081875;28;20417;-60
2023/03/16 12:57:19;;;;;;;1.85;0.60;;;;;;;21.11;28.31;100234.28;5082262;28;20060;-60
2023/03/16 12:59:49;;;;;;;0.40;0.30;;;;;;;20.31;28.57;100227.78;5079805;28;20040;-60
2023/03/16 13:02:21;;;;;;;0.95;0.60;;;;;;;20.14;28.82;100229.56;5079991;28;20286;-61
2023/03/16 13:04:54;;;;;;;0.73;0.30;;;;;;;19.90;29.75;100219.84;5080999;28;20107;-60
2023/03/16 13:07:26;;;;;;;0.50;0.32;;;;;;;20.56;28.61;100218.59;5080265;28;20072;-63
2023/03/16 13:09:56;;;;;;;0.82;0.50;;;;;;;21.34;27.97;100220.66;5080298;28;20031;-61
2023/03/16 13:12:26;;;;;;;0.43;0.28;;;;;;;21.77;26.20;100230.00;5080127;28;20115;-62
2023/03/16 13:14:55;;;;;;;1.70;0.30;;;;;;;21.93;26.17;100212.94;5080265;28;20079;-63
2023/03/16 13:17:23;;;;;;;0.38;0.35;;;;;;;21.50;25.36;100202.75;5080304;28;20077;-61
2023/03/16 13:20:24;;;;;;;1.02;0.52;;;;;;;22.30;26.23;100211.56;5080766;28;20409;-60
2023/03/16 13:23:07;;;;;;;0.17;0.17;;;;;;;22.10;25.52;100203.97;5080089;28;20032;-60
2023/03/16 13:25:45;;;;;;;0.88;0.20;;;;;;;21.01;27.81;100204.31;5081982;28;20036;-61
2023/03/16 13:28:14;;;;;;;1.35;0.40;;;;;;;20.44;26.19;100198.84;5081541;28;20385;-62
2023/03/16 13:30:47;;;;;;;0.30;0.30;;;;;;;20.82;25.84;100196.38;5079987;28;20047;-61
2023/03/16 13:33:24;;;;;;;0.30;0.20;;;;;;;21.24;26.12;100192.53;5079451;28;20488;-62
2023/03/16 13:35:52;;;;;;;0.40;0.38;;;;;;;20.68;25.61;100184.22;5081296;28;20111;-61
2023/03/16 13:38:21;;;;;;;0.82;0.50;;;;;;;20.81;26.67;100186.63;5078301;28;20041;-59
2023/03/16 13:40:53;;;;;;;0.45;0.40;;;;;;;21.02;27.33;100187.00;5080652;28;20438;-61
2023/03/16 13:43:23;;;;;;;1.10;0.88;;;;;;;21.39;25.86;100180.13;5083038;28;20555;-62
2023/03/16 13:45:49;;;;;;;0.40;0.32;;;;;;;21.10;25.72;100182.00;5095253;28;20090;-62
2023/03/16 13:48:16;;;;;;;0.63;0.40;;;;;;;21.87;25.48;100175.97;5095205;28;20408;-60
2023/03/16 13:50:43;;;;;;;0.70;0.30;;;;;;;22.79;23.27;100170.91;5093652;28;21922;-60
2023/03/16 13:53:17;;;;;;;0.40;0.40;;;;;;;21.68;24.79;100163.75;5094974;28;20034;-62
2023/03/16 13:55:46;;;;;;;0.47;0.47;;;;;;;21.92;24.20;100161.66;5095165;28;20067;-64
2023/03/16 13:58:41;;;;;;;0.20;0.20;;;;;;;21.26;26.68;100155.22;5093732;28;20035;-64
2023/03/16 14:01:25;;;;;;;0.52;0.35;;;;;;;20.77;26.37;100147.56;5093240;28;20497;-62
2023/03/16 14:03:51;;;;;;;0.30;0.30;;;;;;;20.98;25.70;100137.09;5094767;28;20097;-61
2023/03/16 14:06:29;;;;;;;0.30;0.22;;;;;;;20.77;25.48;100133.22;5094813;28;20039;-63
2023/03/16 14:09:17;;;;;;;0.63;0.47;;;;;;;20.22;25.77;100133.75;5094874;28;20118;-60
2023/03/16 14:11:43;;;;;;;1.52;0.50;;;;;;;19.86;27.12;100132.16;5094794;28;20082;-62
2023/03/16 14:14:22;;;;;;;0.35;0.28;;;;;;;19.11;27.20;100138.22;5094494;28;20073;-61
2023/03/16 14:16:48;;;;;;;0.60;0.30;;;;;;;18.72;28.35;100136.94;5094586;28;20040;-62
2023/03/16 14:19:24;;;;;;;0.95;0.20;;;;;;;18.73;28.49;100135.88;5094633;28;20070;-63
2023/03/16 14:21:50;;;;;;;0.80;0.40;;;;;;;18.62;29.29;100134.72;5094598;28;20039;-62
2023/03/16 14:24:32;;;;;;;0.65;0.40;;;;;;;17.99;28.87;100130.50;5075849;28;20640;-59
2023/03/16 14:27:08;;;;;;;0.50;0.40;;;;;;;17.60;30.06;100115.56;5074164;28;20119;-61
2023/03/16 14:29:34;;;;;;;0.70;0.35;;;;;;;17.63;30.38;100110.56;5074238;28;20048;-63
2023/03/16 14:31:59;;;;;;;0.35;0.35;;;;;;;17.62;30.88;100098.16;5074022;28;20075;-64
2023/03/16 14:34:38;;;;;;;0.45;0.32;;;;;;;17.39;30.75;100105.22;5073605;28;20061;-61
2023/03/16 14:37:13;;;;;;;0.80;0.22;;;;;;;17.30;31.09;100101.97;5074061;28;20036;-65
2023/03/16 14:39:39;;;;;;;0.40;0.40;;;;;;;17.14;32.69;100108.72;5074026;28;20037;-64
2023/03/16 14:42:18;;;;;;;0.55;0.25;;;;;;;16.62;32.96;100099.94;5073881;28;20401;-63
2023/03/16 14:44:44;;;;;;;0.55;0.55;;;;;;;16.62;32.96;100109.88;5073059;28;20523;-62
2023/03/16 14:47:21;;;;;;;0.40;0.40;;;;;;;16.77;32.21;100092.44;5073899;28;20063;-60
2023/03/16 14:49:47;;;;;;;;;;;;;;;16.93;32.59;100106.41;5074304;28;20035;-59
2023/03/16 14:52:32;;;;;;;0.40;0.40;;;;;;;16.89;32.85;100106.03;5073593;28;19924;-64
2023/03/16 14:54:59;;;;;;;0.65;0.40;;;;;;;16.81;32.42;100103.59;5072023;28;20044;-59
2023/03/16 14:57:25;;;;;;;0.50;0.50;;;;;;;16.70;33.09;100096.22;5073486;28;20048;-63
2023/03/16 14:59:54;;;;;;;0.40;0.40;;;;;;;16.23;33.76;100100.97;5073685;28;20028;-58
2023/03/16 15:02:27;;;;;;;0.63;0.47;;;;;;;16.08;34.12;100092.38;5073376;28;20123;-62
2023/03/16 15:04:55;;;;;;;0.40;0.40;;;;;;;16.17;34.42;100101.81;5073532;28;20040;-61
2023/03/16 15:07:24;;;;;;;;;;;;;;;16.01;34.24;100092.41;5073978;28;20044;-62
2023/03/16 15:09:52;;;;;;;0.30;0.30;;;;;;;16.11;33.75;100092.78;5072166;28;20015;-61
2023/03/16 15:12:19;;;;;;;;;;;;;;;16.09;34.78;100091.34;5073644;28;20032;-67
2023/03/16 15:17:29;;;;;;;0.63;0.50;;;;;;;15.98;34.97;100107.09;5073133;28;20481;-61
2023/03/16 15:19:55;;;;;;;0.63;0.38;;;;;;;15.76;34.77;100094.94;5073220;28;20044;-61
2023/03/16 15:22:27;;;;;;;0.93;0.60;;;;;;;15.81;34.37;100092.47;5073214;28;20043;-60
2023/03/16 15:24:53;;;;;;;0.95;0.50;;;;;;;15.83;34.92;100094.94;5073202;28;20098;-64
2023/03/16 15:27:23;;;;;;;0.73;0.50;;;;;;;15.79;35.24;100089.16;5071719;28;20029;-63
2023/03/16 15:29:49;;;;;;;1.75;0.65;;;;;;;15.72;35.45;100086.50;5072990;28;20036;-63
2023/03/16 15:32:15;;;;;;;1.55;0.77;;;;;;;15.74;35.63;100080.91;5072812;28;20043;-60
2023/03/16 15:34:41;;;;;;;0.30;0.30;;;;;;;15.77;35.81;100085.03;5072929;28;20086;-64
2023/03/16 15:37:16;;;;;;;0.63;0.63;;;;;;;15.65;34.93;100093.75;5072896;28;20047;-65
2023/03/16 15:39:42;;;;;;;1.00;0.50;;;;;;;15.56;35.66;100086.09;5072923;28;20039;-64
2023/03/16 15:42:17;;;;;;;0.40;0.40;;;;;;;15.53;35.85;100089.19;5073151;28;20028;-63
2023/03/16 15:44:44;;;;;;;1.17;0.65;;;;;;;15.46;35.67;100087.34;5072703;28;20033;-62
2023/03/16 15:47:10;;;;;;;0.40;0.40;;;;;;;15.35;35.49;100071.06;5071495;28;20485;-62
2023/03/16 15:49:37;;;;;;;0.82;0.50;;;;;;;15.37;35.94;100080.53;5072739;28;20507;-62
2023/03/16 15:52:06;;;;;;;0.43;0.40;;;;;;;15.39;36.27;100073.13;5072588;28;20434;-59
2023/03/16 15:54:35;;;;;;;0.47;0.40;;;;;;;15.09;37.02;100077.25;5071112;28;20403;-64
2023/03/16 15:57:01;;;;;;;2.03;0.70;;;;;;;15.01;38.22;100072.13;5072400;28;20114;-59
2023/03/16 15:59:33;;;;;;;1.88;0.52;;;;;;;14.98;38.28;100069.81;5072472;28;20043;-59
2023/03/16 16:01:59;;;;;;;0.50;0.50;;;;;;;14.89;39.36;100059.31;5072353;28;20028;-60
2023/03/16 16:04:24;;;;;;;0.65;0.50;;;;;;;14.93;38.99;100057.03;5070606;28;20446;-60
2023/03/16 16:06:53;;;;;;;0.73;0.50;;;;;;;14.89;39.45;100056.63;5071561;28;20042;-63
2023/03/16 16:09:19;;;;;;;0.77;0.60;;;;;;;14.76;39.29;100055.78;5072150;28;20032;-61
2023/03/16 16:11:47;;;;;;;0.30;0.30;;;;;;;14.64;40.65;100050.22;5072149;28;20049;-61
2023/03/16 16:14:18;;;;;;;0.55;0.50;;;;;;;14.68;39.53;100047.97;5071966;28;20425;-60
2023/03/16 16:16:44;;;;;;;1.98;0.50;;;;;;;14.61;39.99;100042.59;5072133;28;20482;-62
2023/03/16 16:19:13;;;;;;;0.43;0.43;;;;;;;14.66;40.08;100045.47;5072073;28;20042;-64
2023/03/16 16:21:39;;;;;;;1.48;0.70;;;;;;;14.57;39.70;100052.06;5071910;28;20112;-60
2023/03/16 16:24:05;;;;;;;0.60;0.60;;;;;;;14.48;40.20;100046.06;5071549;28;20044;-62
2023/03/16 16:26:34;;;;;;;1.10;0.40;;;;;;;14.50;40.12;100035.97;5071867;28;20413;-61
2023/03/16 16:29:04;;;;;;;0.47;0.47;;;;;;;14.45;38.68;100037.56;5071927;28;20223;-59
2023/03/16 16:31:30;;;;;;;0.47;0.47;;;;;;;14.40;38.99;100044.34;5071848;28;20218;-59
2023/03/16 16:33:57;;;;;;;1.02;0.57;;;;;;;14.40;38.38;100040.84;5071477;28;20507;-59
2023/03/16 16:36:24;;;;;;;0.60;0.60;;;;;;;14.23;39.38;100042.25;5071611;28;20027;-61
2023/03/16 16:38:49;;;;;;;1.63;0.60;;;;;;;14.23;39.41;100045.78;5071559;28;20033;-59
2023/03/16 16:41:29;;;;;;;0.90;0.50;;;;;;;14.15;39.80;100043.28;5071704;28;20108;-60
2023/03/16 16:43:56;;;;;;;0.80;0.50;;;;;;;14.09;39.73;100042.22;5069986;28;20040;-62
2023/03/16 16:46:24;;;;;;;0.70;0.60;;;;;;;14.04;39.85;100036.63;5071525;28;20033;-60
2023/03/16 16:48:56;;;;;;;0.70;0.50;;;;;;;14.04;39.40;100035.81;5071525;28;20043;-62
2023/03/16 16:51:25;;;;;;;0.55;0.55;;;;;;;13.98;40.02;100036.63;5071630;28;20044;-60
2023/03/16 16:53:53;;;;;;;0.63;0.50;;;;;;;13.91;39.46;100049.97;5071259;28;20390;-64
2023/03/16 16:56:27;;;;;;;0.40;0.40;;;;;;;13.93;39.58;100050.59;5071471;28;20041;-60
2023/03/16 16:58:54;;;;;;;1.05;0.60;;;;;;;13.87;41.05;100051.38;5071443;28;20036;-62
2023/03/16 17:01:29;;;;;;;1.83;0.50;;;;;;;13.75;41.07;100048.44;5071346;28;20032;-58
2023/03/16 17:03:55;;;;;;;0.75;0.65;;;;;;;13.69;42.48;100043.06;5071054;28;20037;-57
2023/03/16 17:06:21;;;;;;;0.38;0.38;;;;;;;13.65;43.06;100041.81;5071387;28;20032;-61
2023/03/16 17:08:48;;;;;;;1.02;0.60;;;;;;;13.58;43.11;100052.50;5071365;28;20392;-59
2023/03/16 17:11:23;;;;;;;0.93;0.75;;;;;;;13.45;43.81;100041.72;5071295;28;20043;-61